createdAt,value
2018-09-29T00:01:22.580Z,7.15
2018-09-29T00:03:51.371Z,7.20
2018-09-29T00:06:20.220Z,7.12
2018-09-29T00:08:49.038Z,6.90
2018-09-29T00:11:17.944Z,6.84
2018-09-29T00:13:46.738Z,6.96
2018-09-29T00:16:15.595Z,6.99
2018-09-29T00:18:44.381Z,6.96
2018-09-29T00:21:13.232Z,6.93
2018-09-29T00:23:42.079Z,6.96
2018-09-29T00:26:10.920Z,6.89
2018-09-29T00:28:39.716Z,6.84
2018-09-29T00:31:08.564Z,6.81
2018-09-29T00:33:38.432Z,6.78
2018-09-29T00:36:07.389Z,6.98
2018-09-29T00:38:36.168Z,6.97
2018-09-29T00:41:04.975Z,6.82
2018-09-29T00:43:34.073Z,6.76
2018-09-29T00:46:02.992Z,6.79
2018-09-29T00:48:33.115Z,6.61
2018-09-29T00:51:01.924Z,6.70
2018-09-29T00:53:30.763Z,6.73
2018-09-29T00:55:59.624Z,6.69
2018-09-29T00:58:28.468Z,6.57
2018-09-29T01:00:57.780Z,6.25
2018-09-29T01:03:26.624Z,6.50
2018-09-29T01:05:55.451Z,6.48
2018-09-29T01:08:24.300Z,6.51
2018-09-29T01:10:53.108Z,6.40
2018-09-29T01:13:22.011Z,6.39
2018-09-29T01:15:50.801Z,6.47
2018-09-29T01:18:19.959Z,6.30
2018-09-29T01:20:48.814Z,6.32
2018-09-29T01:23:17.668Z,6.64
2018-09-29T01:25:46.523Z,6.44
2018-09-29T01:28:15.411Z,6.41
2018-09-29T01:30:44.200Z,6.36
2018-09-29T01:33:12.988Z,6.32
2018-09-29T01:35:41.809Z,6.44
2018-09-29T01:38:10.659Z,6.52
2018-09-29T01:40:39.487Z,6.66
2018-09-29T01:43:08.280Z,6.74
2018-09-29T01:45:37.371Z,6.71
2018-09-29T01:48:06.189Z,6.74
2018-09-29T01:50:35.144Z,6.76
2018-09-29T01:53:04.015Z,6.71
2018-09-29T01:55:32.900Z,6.76
2018-09-29T01:58:01.687Z,6.77
2018-09-29T02:00:30.546Z,6.71
2018-09-29T02:03:03.893Z,6.68
2018-09-29T02:05:32.783Z,6.63
2018-09-29T02:08:01.640Z,6.46
2018-09-29T02:10:30.882Z,6.43
2018-09-29T02:13:00.301Z,6.45
2018-09-29T02:15:29.221Z,6.39
2018-09-29T02:17:58.024Z,6.41
2018-09-29T02:20:26.905Z,6.52
2018-09-29T02:22:56.038Z,6.42
2018-09-29T02:25:25.391Z,6.29
2018-09-29T02:27:54.183Z,6.26
2018-09-29T02:30:23.003Z,6.22
2018-09-29T02:32:51.846Z,6.18
2018-09-29T02:35:20.937Z,6.27
2018-09-29T02:37:49.869Z,6.11
2018-09-29T02:40:18.689Z,5.87
2018-09-29T02:42:47.499Z,5.71
2018-09-29T02:45:16.295Z,5.79
2018-09-29T02:47:45.124Z,6.02
2018-09-29T02:50:13.967Z,6.14
2018-09-29T02:52:42.792Z,6.10
2018-09-29T02:55:11.627Z,6.17
2018-09-29T02:57:40.489Z,6.07
2018-09-29T03:00:09.276Z,6.03
2018-09-29T03:02:38.164Z,6.02
2018-09-29T03:05:07.016Z,5.81
2018-09-29T03:07:37.880Z,6.17
2018-09-29T03:10:06.748Z,6.31
2018-09-29T03:12:35.559Z,6.51
2018-09-29T03:15:04.601Z,6.50
2018-09-29T03:17:33.451Z,6.57
2018-09-29T03:20:02.240Z,6.56
2018-09-29T03:22:31.698Z,6.69
2018-09-29T03:25:00.493Z,6.79
2018-09-29T03:27:29.438Z,6.88
2018-09-29T03:29:58.264Z,6.67
2018-09-29T03:32:27.077Z,6.80
2018-09-29T03:34:55.929Z,6.68
2018-09-29T03:37:24.727Z,6.84
2018-09-29T03:39:53.904Z,6.92
2018-09-29T03:42:22.691Z,6.88
2018-09-29T03:44:52.435Z,6.61
2018-09-29T03:47:21.199Z,6.82
2018-09-29T03:49:50.065Z,6.96
2018-09-29T03:52:18.988Z,5.85
2018-09-29T03:54:47.989Z,5.96
2018-09-29T03:57:16.796Z,5.79
2018-09-29T03:59:45.631Z,6.37
2018-09-29T04:02:14.453Z,6.02
2018-09-29T04:04:43.353Z,6.13
2018-09-29T04:07:12.146Z,6.43
2018-09-29T04:09:40.972Z,6.65
2018-09-29T04:12:09.778Z,6.54
2018-09-29T04:14:38.624Z,6.51
2018-09-29T04:17:07.604Z,6.78
2018-09-29T04:19:36.461Z,6.94
2018-09-29T04:22:05.351Z,7.00
2018-09-29T04:24:34.288Z,7.05
2018-09-29T04:27:03.110Z,7.03
2018-09-29T04:29:31.996Z,7.11
2018-09-29T04:32:00.834Z,7.26
2018-09-29T04:34:29.627Z,7.21
2018-09-29T04:36:58.453Z,7.25
2018-09-29T04:39:27.288Z,7.24
2018-09-29T04:41:56.164Z,7.37
2018-09-29T04:44:24.947Z,7.29
2018-09-29T04:46:53.795Z,7.39
2018-09-29T04:49:22.551Z,7.07
2018-09-29T04:51:51.371Z,6.83
2018-09-29T04:54:20.192Z,6.71
2018-09-29T04:56:49.084Z,6.89
2018-09-29T04:59:17.875Z,7.36
2018-09-29T05:01:46.699Z,6.76
2018-09-29T05:04:16.026Z,6.37
2018-09-29T05:06:44.900Z,6.46
2018-09-29T05:09:13.716Z,6.65
2018-09-29T05:11:42.543Z,7.10
2018-09-29T05:14:11.356Z,7.26
2018-09-29T05:16:40.229Z,6.84
2018-09-29T05:19:09.437Z,7.09
2018-09-29T05:21:38.303Z,7.10
2018-09-29T05:24:07.271Z,6.99
2018-09-29T05:26:36.324Z,6.36
2018-09-29T05:29:05.167Z,6.22
2018-09-29T05:31:34.061Z,6.49
2018-09-29T05:34:02.895Z,6.57
2018-09-29T05:36:31.715Z,6.40
2018-09-29T05:39:00.583Z,6.52
2018-09-29T05:41:29.396Z,7.09
2018-09-29T05:43:58.425Z,7.17
2018-09-29T05:46:27.201Z,7.32
2018-09-29T05:48:56.037Z,7.16
2018-09-29T05:51:25.129Z,6.74
2018-09-29T05:53:53.950Z,7.17
2018-09-29T05:56:22.940Z,7.09
2018-09-29T05:58:51.839Z,7.29
2018-09-29T06:01:20.620Z,7.19
2018-09-29T06:03:49.445Z,6.92
2018-09-29T06:06:18.241Z,7.03
2018-09-29T06:08:47.128Z,7.10
2018-09-29T06:11:16.334Z,7.01
2018-09-29T06:13:45.165Z,7.17
2018-09-29T06:16:13.977Z,7.14
2018-09-29T06:18:42.841Z,7.60
2018-09-29T06:21:11.836Z,7.67
2018-09-29T06:23:40.700Z,7.60
2018-09-29T06:26:09.800Z,7.66
2018-09-29T06:28:38.571Z,7.77
2018-09-29T06:31:07.459Z,7.77
2018-09-29T06:33:36.364Z,8.06
2018-09-29T06:36:05.267Z,8.06
2018-09-29T06:38:34.413Z,8.46
2018-09-29T06:41:03.531Z,8.62
2018-09-29T06:43:32.545Z,8.73
2018-09-29T06:46:01.456Z,8.79
2018-09-29T06:48:30.274Z,8.70
2018-09-29T06:50:59.096Z,8.65
2018-09-29T06:53:27.891Z,8.94
2018-09-29T06:55:56.790Z,9.12
2018-09-29T06:58:25.628Z,9.28
2018-09-29T07:00:54.476Z,9.35
2018-09-29T07:03:23.286Z,9.62
2018-09-29T07:05:52.124Z,9.65
2018-09-29T07:08:20.959Z,9.70
2018-09-29T07:10:49.879Z,9.76
2018-09-29T07:13:18.695Z,9.81
2018-09-29T07:15:47.619Z,9.97
2018-09-29T07:18:16.403Z,10.13
2018-09-29T07:20:45.178Z,10.19
2018-09-29T07:23:14.116Z,10.28
2018-09-29T07:25:43.152Z,10.42
2018-09-29T07:28:12.053Z,10.51
2018-09-29T07:30:40.829Z,10.56
2018-09-29T07:33:09.653Z,10.62
2018-09-29T07:35:38.537Z,11.01
2018-09-29T07:38:07.396Z,11.01
2018-09-29T07:40:36.259Z,11.18
2018-09-29T07:43:05.110Z,11.33
2018-09-29T07:45:39.779Z,11.53
2018-09-29T07:48:08.660Z,11.74
2018-09-29T07:50:37.471Z,11.50
2018-09-29T07:53:06.350Z,11.69
2018-09-29T07:55:35.213Z,11.99
2018-09-29T07:58:04.058Z,12.25
2018-09-29T08:00:33.273Z,12.22
2018-09-29T08:03:02.190Z,12.28
2018-09-29T08:05:30.984Z,12.18
2018-09-29T08:07:59.829Z,12.24
2018-09-29T08:10:28.628Z,12.59
2018-09-29T08:12:57.828Z,12.89
2018-09-29T08:15:26.605Z,13.18
2018-09-29T08:17:55.532Z,13.37
2018-09-29T08:20:24.324Z,13.42
2018-09-29T08:22:53.132Z,13.83
2018-09-29T08:25:22.045Z,14.10
2018-09-29T08:27:50.837Z,14.36
2018-09-29T08:30:19.921Z,14.39
2018-09-29T08:32:48.835Z,14.26
2018-09-29T08:35:17.693Z,14.17
2018-09-29T08:37:46.562Z,14.18
2018-09-29T08:40:15.791Z,13.87
2018-09-29T08:42:44.848Z,13.66
2018-09-29T08:45:13.775Z,13.82
2018-09-29T08:47:42.594Z,13.79
2018-09-29T08:50:11.470Z,13.70
2018-09-29T08:52:40.563Z,13.67
2018-09-29T08:55:09.423Z,13.52
2018-09-29T08:57:38.235Z,13.79
2018-09-29T09:00:07.149Z,13.90
2018-09-29T09:02:36.060Z,13.77
2018-09-29T09:05:04.976Z,13.62
2018-09-29T09:07:33.825Z,13.77
2018-09-29T09:10:02.697Z,13.19
2018-09-29T09:12:31.519Z,13.93
2018-09-29T09:15:00.448Z,14.06
2018-09-29T09:17:29.271Z,14.02
2018-09-29T09:19:58.196Z,13.99
2018-09-29T09:22:26.986Z,13.94
2018-09-29T09:24:55.773Z,14.03
2018-09-29T09:27:24.669Z,13.91
2018-09-29T09:29:53.579Z,14.18
2018-09-29T09:32:22.511Z,14.39
2018-09-29T09:34:51.333Z,14.50
2018-09-29T09:37:20.192Z,14.43
2018-09-29T09:39:49.056Z,14.51
2018-09-29T09:42:17.904Z,14.29
2018-09-29T09:44:46.688Z,14.46
2018-09-29T09:47:15.551Z,14.79
2018-09-29T09:49:44.339Z,14.88
2018-09-29T09:52:13.244Z,14.84
2018-09-29T09:54:42.029Z,14.77
2018-09-29T09:57:10.895Z,14.52
2018-09-29T09:59:39.660Z,14.78
2018-09-29T10:02:14.019Z,15.18
2018-09-29T10:04:42.895Z,15.12
2018-09-29T10:07:11.730Z,15.21
2018-09-29T10:09:40.516Z,15.35
2018-09-29T10:12:09.368Z,15.03
2018-09-29T10:14:38.143Z,15.20
2018-09-29T10:17:07.038Z,15.16
2018-09-29T10:19:35.832Z,15.17
2018-09-29T10:22:04.649Z,15.39
2018-09-29T10:24:33.491Z,15.30
2018-09-29T10:27:02.310Z,15.09
2018-09-29T10:29:31.568Z,15.26
2018-09-29T10:32:00.351Z,15.37
2018-09-29T10:34:29.200Z,15.48
2018-09-29T10:36:58.032Z,15.50
2018-09-29T10:39:26.878Z,15.18
2018-09-29T10:41:57.084Z,15.04
2018-09-29T10:44:25.949Z,14.95
2018-09-29T10:46:54.769Z,14.83
2018-09-29T10:49:23.724Z,14.76
2018-09-29T10:51:52.516Z,15.10
2018-09-29T10:54:21.397Z,15.37
2018-09-29T10:56:50.249Z,15.48
2018-09-29T10:59:19.110Z,15.62
2018-09-29T11:01:47.947Z,15.72
2018-09-29T11:04:16.791Z,15.74
2018-09-29T11:06:45.628Z,15.57
2018-09-29T11:09:15.721Z,15.72
2018-09-29T11:11:44.492Z,15.61
2018-09-29T11:14:13.363Z,15.62
2018-09-29T11:16:42.169Z,15.58
2018-09-29T11:19:11.012Z,15.66
2018-09-29T11:21:39.840Z,15.63
2018-09-29T11:24:08.651Z,15.56
2018-09-29T11:26:37.480Z,15.39
2018-09-29T11:29:06.272Z,14.96
2018-09-29T11:31:35.151Z,15.26
2018-09-29T11:34:03.974Z,15.36
2018-09-29T11:36:32.795Z,15.57
2018-09-29T11:39:01.590Z,15.76
2018-09-29T11:41:30.408Z,15.55
2018-09-29T11:43:59.275Z,15.86
2018-09-29T11:46:28.094Z,15.72
2018-09-29T11:48:56.868Z,16.08
2018-09-29T11:51:25.819Z,16.11
2018-09-29T11:53:54.667Z,16.16
2018-09-29T11:56:23.612Z,16.32
2018-09-29T11:58:52.483Z,16.44
2018-09-29T12:01:21.318Z,16.46
2018-09-29T12:03:50.444Z,16.41
2018-09-29T12:06:19.342Z,16.02
2018-09-29T12:08:48.379Z,16.01
2018-09-29T12:11:17.440Z,15.80
2018-09-29T12:13:46.263Z,16.13
2018-09-29T12:16:15.104Z,16.27
2018-09-29T12:18:43.887Z,16.33
2018-09-29T12:21:12.875Z,16.25
2018-09-29T12:23:41.648Z,15.98
2018-09-29T12:26:10.460Z,15.70
2018-09-29T12:28:39.312Z,16.13
2018-09-29T12:31:08.204Z,16.02
2018-09-29T12:33:37.106Z,16.01
2018-09-29T12:36:05.925Z,16.19
2018-09-29T12:38:34.875Z,16.26
2018-09-29T12:41:03.684Z,16.43
2018-09-29T12:43:32.569Z,16.64
2018-09-29T12:46:01.432Z,16.27
2018-09-29T12:48:30.280Z,16.35
2018-09-29T12:50:59.101Z,16.34
2018-09-29T12:53:27.938Z,16.53
2018-09-29T12:55:56.775Z,16.30
2018-09-29T12:58:25.710Z,16.27
2018-09-29T13:00:54.528Z,16.30
2018-09-29T13:03:23.367Z,16.19
2018-09-29T13:05:52.215Z,16.23
2018-09-29T13:08:21.036Z,16.49
2018-09-29T13:10:49.981Z,16.43
2018-09-29T13:13:19.104Z,16.02
2018-09-29T13:15:47.892Z,16.36
2018-09-29T13:18:16.696Z,16.81
2018-09-29T13:20:45.520Z,16.81
2018-09-29T13:23:14.356Z,16.49
2018-09-29T13:25:43.179Z,16.28
2018-09-29T13:28:11.984Z,16.50
2018-09-29T13:30:40.833Z,16.36
2018-09-29T13:33:10.208Z,16.39
2018-09-29T13:35:39.110Z,15.97
2018-09-29T13:38:07.872Z,16.22
2018-09-29T13:40:36.782Z,16.06
2018-09-29T13:43:05.640Z,15.92
2018-09-29T13:45:34.466Z,15.78
2018-09-29T13:48:04.316Z,15.84
2018-09-29T13:50:33.184Z,15.91
2018-09-29T13:53:02.691Z,15.79
2018-09-29T13:55:31.796Z,16.32
2018-09-29T13:58:00.690Z,16.12
2018-09-29T14:00:29.589Z,16.33
2018-09-29T14:02:58.684Z,16.65
2018-09-29T14:05:27.559Z,16.69
2018-09-29T14:07:56.632Z,16.75
2018-09-29T14:10:26.396Z,16.63
2018-09-29T14:12:55.305Z,16.26
2018-09-29T14:15:24.197Z,16.17
2018-09-29T14:17:53.062Z,16.13
2018-09-29T14:20:21.881Z,15.90
2018-09-29T14:22:50.713Z,15.84
2018-09-29T14:25:19.708Z,15.86
2018-09-29T14:27:48.566Z,15.83
2018-09-29T14:30:17.404Z,15.63
2018-09-29T14:32:46.252Z,15.44
2018-09-29T14:35:15.068Z,15.64
2018-09-29T14:37:44.016Z,15.75
2018-09-29T14:40:12.831Z,15.50
2018-09-29T14:42:41.945Z,15.45
2018-09-29T14:45:10.825Z,15.46
2018-09-29T14:47:39.662Z,15.50
2018-09-29T14:50:08.590Z,15.69
2018-09-29T14:52:37.431Z,15.78
2018-09-29T14:55:06.308Z,15.88
2018-09-29T14:57:35.193Z,15.97
2018-09-29T15:00:04.281Z,15.80
2018-09-29T15:02:33.197Z,15.96
2018-09-29T15:05:02.006Z,16.05
2018-09-29T15:07:30.864Z,15.90
2018-09-29T15:09:59.731Z,15.85
2018-09-29T15:12:28.883Z,15.66
2018-09-29T15:14:58.737Z,15.63
2018-09-29T15:17:28.064Z,15.50
2018-09-29T15:19:57.419Z,15.37
2018-09-29T15:22:26.382Z,15.07
2018-09-29T15:24:55.196Z,15.10
2018-09-29T15:27:24.126Z,15.20
2018-09-29T15:29:53.009Z,15.42
2018-09-29T15:32:21.851Z,15.30
2018-09-29T15:34:51.193Z,15.28
2018-09-29T15:37:22.124Z,15.37
2018-09-29T15:39:51.325Z,15.27
2018-09-29T15:42:20.145Z,15.28
2018-09-29T15:44:49.047Z,15.27
2018-09-29T15:47:18.121Z,15.28
2018-09-29T15:49:46.942Z,15.17
2018-09-29T15:52:15.904Z,15.22
2018-09-29T15:54:44.751Z,15.21
2018-09-29T15:57:13.600Z,15.22
2018-09-29T15:59:42.441Z,15.26
2018-09-29T16:02:11.237Z,15.12
2018-09-29T16:04:40.149Z,15.06
2018-09-29T16:07:08.933Z,15.02
2018-09-29T16:09:37.773Z,14.90
2018-09-29T16:12:06.596Z,14.86
2018-09-29T16:14:35.420Z,14.67
2018-09-29T16:17:04.332Z,14.63
2018-09-29T16:19:33.151Z,14.67
2018-09-29T16:22:01.988Z,14.59
2018-09-29T16:24:30.764Z,14.34
2018-09-29T16:26:59.622Z,14.18
2018-09-29T16:29:28.747Z,14.18
2018-09-29T16:31:57.926Z,14.07
2018-09-29T16:34:26.668Z,14.10
2018-09-29T16:36:55.487Z,13.93
2018-09-29T16:39:24.585Z,13.78
2018-09-29T16:41:53.500Z,13.74
2018-09-29T16:44:22.286Z,13.56
2018-09-29T16:46:51.136Z,13.66
2018-09-29T16:49:19.988Z,13.42
2018-09-29T16:51:48.818Z,13.27
2018-09-29T16:54:17.788Z,13.00
2018-09-29T16:56:46.641Z,12.95
2018-09-29T16:59:15.443Z,12.97
2018-09-29T17:01:44.275Z,12.87
2018-09-29T17:04:13.127Z,12.73
2018-09-29T17:06:42.048Z,12.69
2018-09-29T17:09:11.972Z,12.66
2018-09-29T17:11:41.108Z,12.61
2018-09-29T17:14:09.923Z,12.50
2018-09-29T17:16:38.719Z,12.50
2018-09-29T17:19:07.732Z,12.41
2018-09-29T17:21:36.525Z,12.36
2018-09-29T17:24:05.427Z,12.17
2018-09-29T17:26:34.237Z,12.14
2018-09-29T17:29:03.117Z,12.11
2018-09-29T17:31:31.958Z,12.06
2018-09-29T17:34:00.778Z,11.89
2018-09-29T17:36:29.581Z,11.83
2018-09-29T17:38:58.453Z,11.65
2018-09-29T17:41:27.251Z,11.59
2018-09-29T17:43:56.248Z,11.62
2018-09-29T17:46:25.072Z,11.33
2018-09-29T17:48:53.895Z,11.41
2018-09-29T17:51:22.750Z,11.38
2018-09-29T17:53:51.540Z,11.34
2018-09-29T17:56:20.462Z,11.47
2018-09-29T17:58:49.373Z,11.23
2018-09-29T18:01:18.169Z,11.24
2018-09-29T18:03:47.027Z,11.19
2018-09-29T18:06:15.848Z,11.17
2018-09-29T18:08:44.781Z,11.11
2018-09-29T18:11:13.597Z,11.10
2018-09-29T18:13:42.431Z,11.04
2018-09-29T18:16:11.257Z,10.99
2018-09-29T18:18:40.979Z,10.92
2018-09-29T18:21:09.907Z,10.87
2018-09-29T18:23:38.697Z,10.77
2018-09-29T18:26:07.623Z,10.72
2018-09-29T18:28:36.418Z,10.68
2018-09-29T18:31:05.252Z,10.61
2018-09-29T18:33:34.132Z,10.54
2018-09-29T18:36:03.056Z,10.45
2018-09-29T18:38:31.885Z,10.43
2018-09-29T18:41:01.072Z,10.39
2018-09-29T18:43:29.882Z,10.34
2018-09-29T18:45:58.877Z,10.24
2018-09-29T18:48:28.058Z,10.22
2018-09-29T18:50:57.715Z,10.24
2018-09-29T18:53:26.475Z,10.15
2018-09-29T18:55:55.702Z,10.05
2018-09-29T18:58:24.499Z,10.05
2018-09-29T19:00:53.274Z,10.04
2018-09-29T19:03:22.369Z,10.05
2018-09-29T19:05:51.193Z,9.86
2018-09-29T19:08:20.035Z,9.89
2018-09-29T19:10:48.998Z,9.84
2018-09-29T19:13:17.780Z,9.61
2018-09-29T19:15:46.580Z,9.64
2018-09-29T19:18:15.561Z,9.32
2018-09-29T19:20:44.392Z,9.08
2018-09-29T19:23:13.155Z,8.89
2018-09-29T19:25:42.256Z,9.02
2018-09-29T19:28:11.044Z,9.03
2018-09-29T19:30:39.843Z,9.04
2018-09-29T19:33:08.964Z,9.06
2018-09-29T19:35:37.856Z,9.22
2018-09-29T19:38:06.792Z,8.88
2018-09-29T19:40:35.915Z,8.76
2018-09-29T19:43:04.767Z,8.72
2018-09-29T19:45:33.613Z,8.76
2018-09-29T19:48:02.801Z,8.93
2018-09-29T19:50:31.628Z,8.86
2018-09-29T19:53:00.460Z,8.78
2018-09-29T19:55:29.560Z,8.76
2018-09-29T19:57:58.426Z,8.80
2018-09-29T20:00:28.493Z,8.78
2018-09-29T20:02:57.787Z,8.78
2018-09-29T20:05:26.731Z,8.75
2018-09-29T20:07:55.518Z,8.68
2018-09-29T20:10:24.577Z,8.65
2018-09-29T20:12:53.463Z,8.63
2018-09-29T20:15:22.272Z,8.52
2018-09-29T20:17:51.393Z,8.42
2018-09-29T20:20:20.211Z,8.45
2018-09-29T20:22:49.088Z,8.64
2018-09-29T20:25:18.232Z,8.44
2018-09-29T20:27:47.058Z,8.40
2018-09-29T20:30:15.896Z,8.34
2018-09-29T20:32:44.993Z,8.33
2018-09-29T20:35:13.855Z,8.43
2018-09-29T20:37:42.747Z,8.29
2018-09-29T20:40:11.890Z,8.36
2018-09-29T20:42:40.684Z,8.35
2018-09-29T20:45:09.499Z,8.35
2018-09-29T20:47:38.679Z,8.13
2018-09-29T20:50:07.579Z,8.27
2018-09-29T20:52:36.354Z,7.85
2018-09-29T20:55:05.769Z,7.76
2018-09-29T20:57:34.572Z,7.79
2018-09-29T21:00:03.592Z,7.78
2018-09-29T21:02:32.752Z,7.88
2018-09-29T21:05:01.572Z,7.78
2018-09-29T21:07:30.384Z,7.84
2018-09-29T21:09:59.827Z,7.94
2018-09-29T21:12:28.649Z,7.89
2018-09-29T21:14:57.444Z,7.52
2018-09-29T21:17:26.613Z,7.60
2018-09-29T21:19:55.456Z,7.67
2018-09-29T21:22:24.508Z,7.72
2018-09-29T21:24:53.556Z,7.69
2018-09-29T21:27:22.426Z,7.58
2018-09-29T21:29:51.253Z,7.28
2018-09-29T21:32:20.805Z,7.35
2018-09-29T21:34:49.602Z,7.36
2018-09-29T21:37:18.485Z,7.63
2018-09-29T21:39:47.335Z,7.38
2018-09-29T21:42:16.462Z,7.46
2018-09-29T21:44:45.227Z,7.47
2018-09-29T21:47:14.388Z,7.47
2018-09-29T21:49:43.255Z,7.39
2018-09-29T21:52:12.291Z,7.54
2018-09-29T21:54:41.427Z,7.36
2018-09-29T21:57:10.254Z,7.36
2018-09-29T21:59:39.051Z,7.07
2018-09-29T22:02:08.311Z,7.21
2018-09-29T22:04:37.181Z,7.30
2018-09-29T22:07:06.161Z,7.39
2018-09-29T22:09:35.259Z,7.26
2018-09-29T22:12:04.083Z,7.22
2018-09-29T22:14:32.952Z,7.23
2018-09-29T22:17:02.173Z,7.17
2018-09-29T22:19:30.972Z,7.18
2018-09-29T22:21:59.804Z,7.28
2018-09-29T22:24:28.952Z,7.16
2018-09-29T22:26:57.783Z,7.11
2018-09-29T22:29:26.569Z,6.95
2018-09-29T22:31:56.051Z,7.05
2018-09-29T22:34:24.749Z,7.19
2018-09-29T22:36:53.523Z,6.94
2018-09-29T22:39:22.713Z,6.89
2018-09-29T22:41:51.503Z,6.98
2018-09-29T22:44:20.299Z,7.01
2018-09-29T22:46:49.493Z,7.03
2018-09-29T22:49:18.356Z,6.44
2018-09-29T22:51:47.220Z,6.11
2018-09-29T22:54:16.371Z,5.95
2018-09-29T22:56:45.168Z,5.86
2018-09-29T22:59:13.947Z,5.82
2018-09-29T23:01:43.031Z,5.93
2018-09-29T23:04:11.984Z,5.93
2018-09-29T23:06:40.810Z,5.91
2018-09-29T23:09:11.380Z,5.91
2018-09-29T23:11:40.578Z,5.90
2018-09-29T23:14:09.391Z,6.02
2018-09-29T23:16:38.646Z,6.03
2018-09-29T23:19:07.515Z,6.13
2018-09-29T23:21:36.287Z,6.13
2018-09-29T23:24:05.437Z,5.92
2018-09-29T23:26:34.232Z,5.96
2018-09-29T23:29:03.102Z,6.22
2018-09-29T23:31:32.214Z,6.23
2018-09-29T23:34:01.008Z,6.11
2018-09-29T23:36:29.790Z,6.08
2018-09-29T23:38:58.859Z,6.06
2018-09-29T23:41:27.715Z,5.85
2018-09-29T23:43:56.486Z,5.91
2018-09-29T23:46:25.894Z,5.64
2018-09-29T23:48:54.693Z,5.89
2018-09-29T23:51:23.551Z,6.08
2018-09-29T23:53:52.756Z,6.20
2018-09-29T23:56:21.547Z,6.24
2018-09-29T23:58:50.343Z,6.32
